createdAt,value
2023-03-07T00:00:41.559Z,1.90
2023-03-07T00:01:26.173Z,2.22
2023-03-07T00:02:02.803Z,2.78
2023-03-07T00:02:35.972Z,1.80
2023-03-07T00:03:12.655Z,1.98
2023-03-07T00:03:52.685Z,1.75
2023-03-07T00:05:29.031Z,1.88
2023-03-07T00:06:14.328Z,2.10
2023-03-07T00:07:01.046Z,2.40
2023-03-07T00:07:49.728Z,1.95
2023-03-07T00:08:36.391Z,2.13
2023-03-07T00:09:43.180Z,2.03
2023-03-07T00:10:19.856Z,2.13
2023-03-07T00:11:05.390Z,2.00
2023-03-07T00:11:45.662Z,1.85
2023-03-07T00:12:25.961Z,1.83
2023-03-07T00:13:09.090Z,2.28
2023-03-07T00:13:51.249Z,1.98
2023-03-07T00:14:37.120Z,1.88
2023-03-07T00:15:12.380Z,2.10
2023-03-07T00:15:53.028Z,1.75
2023-03-07T00:16:35.207Z,1.77
2023-03-07T00:17:29.003Z,1.90
2023-03-07T00:18:08.188Z,2.15
2023-03-07T00:18:46.840Z,1.98
2023-03-07T00:19:22.153Z,1.80
2023-03-07T00:20:05.745Z,1.98
2023-03-07T00:20:38.764Z,1.90
2023-03-07T00:21:15.453Z,1.95
2023-03-07T00:21:54.824Z,1.50
2023-03-07T00:22:36.592Z,1.83
2023-03-07T00:23:13.820Z,1.70
2023-03-07T00:23:50.377Z,1.88
2023-03-07T00:24:26.040Z,1.70
2023-03-07T00:25:02.266Z,1.73
2023-03-07T00:25:36.981Z,2.30
2023-03-07T00:26:17.050Z,1.70
2023-03-07T00:26:51.625Z,2.00
2023-03-07T00:27:36.344Z,1.67
2023-03-07T00:28:11.176Z,1.98
2023-03-07T00:28:54.314Z,1.92
2023-03-07T00:29:31.293Z,2.03
2023-03-07T00:30:10.143Z,1.60
2023-03-07T00:30:55.730Z,1.60
2023-03-07T00:31:31.729Z,1.70
2023-03-07T00:32:09.814Z,1.92
2023-03-07T00:32:48.259Z,1.70
2023-03-07T00:33:25.558Z,1.52
2023-03-07T00:34:00.888Z,2.00
2023-03-07T00:34:40.086Z,1.88
2023-03-07T00:35:17.935Z,1.92
2023-03-07T00:35:59.090Z,1.77
2023-03-07T00:36:42.891Z,1.90
2023-03-07T00:37:28.153Z,1.73
2023-03-07T00:38:06.134Z,1.67
2023-03-07T00:38:43.421Z,1.90
2023-03-07T00:39:54.384Z,2.05
2023-03-07T00:40:32.100Z,1.60
2023-03-07T00:41:09.792Z,1.52
2023-03-07T00:41:53.927Z,1.50
2023-03-07T00:42:35.665Z,1.45
2023-03-07T00:43:11.456Z,1.67
2023-03-07T00:43:50.580Z,1.80
2023-03-07T00:44:24.392Z,1.60
2023-03-07T00:45:04.216Z,1.80
2023-03-07T00:45:44.515Z,2.08
2023-03-07T00:46:18.248Z,2.25
2023-03-07T00:47:01.473Z,1.50
2023-03-07T00:47:46.821Z,1.70
2023-03-07T00:48:43.764Z,1.30
2023-03-07T00:49:23.985Z,1.42
2023-03-07T00:50:02.716Z,1.60
2023-03-07T00:50:40.234Z,1.42
2023-03-07T00:51:18.807Z,1.45
2023-03-07T00:51:57.549Z,1.55
2023-03-07T00:52:34.541Z,1.73
2023-03-07T00:53:10.119Z,1.73
2023-03-07T00:53:47.924Z,1.58
2023-03-07T00:54:28.868Z,1.70
2023-03-07T00:55:11.623Z,1.50
2023-03-07T00:56:12.610Z,1.50
2023-03-07T00:56:48.939Z,1.67
2023-03-07T00:57:33.001Z,2.13
2023-03-07T00:58:18.937Z,1.70
2023-03-07T00:58:57.874Z,1.60
2023-03-07T00:59:36.075Z,1.80
2023-03-07T01:00:20.805Z,1.77
2023-03-07T01:00:59.031Z,1.55
2023-03-07T01:01:33.219Z,1.60
2023-03-07T01:02:08.763Z,1.55
2023-03-07T01:02:50.391Z,1.65
2023-03-07T01:03:26.374Z,1.70
2023-03-07T01:04:01.982Z,1.70
2023-03-07T01:04:46.766Z,1.55
2023-03-07T01:05:34.287Z,1.90
2023-03-07T01:06:11.199Z,2.10
2023-03-07T01:06:53.123Z,1.60
2023-03-07T01:07:27.930Z,1.45
2023-03-07T01:08:01.735Z,2.08
2023-03-07T01:08:48.154Z,1.73
2023-03-07T01:09:25.605Z,1.60
2023-03-07T01:10:04.099Z,1.45
2023-03-07T01:10:48.796Z,1.65
2023-03-07T01:11:29.586Z,1.50
2023-03-07T01:12:17.400Z,1.75
2023-03-07T01:12:51.585Z,1.80
2023-03-07T01:13:27.904Z,1.77
2023-03-07T01:14:06.396Z,1.60
2023-03-07T01:14:45.496Z,2.28
2023-03-07T01:15:21.593Z,1.88
2023-03-07T01:15:59.130Z,1.40
2023-03-07T01:16:37.698Z,1.50
2023-03-07T01:17:13.752Z,1.92
2023-03-07T01:17:49.682Z,1.38
2023-03-07T01:18:29.856Z,1.40
2023-03-07T01:19:04.328Z,1.33
2023-03-07T01:19:39.541Z,1.40
2023-03-07T01:20:21.292Z,1.73
2023-03-07T01:21:06.199Z,1.58
2023-03-07T01:21:56.912Z,1.50
2023-03-07T01:22:35.845Z,1.52
2023-03-07T01:23:28.349Z,1.40
2023-03-07T01:24:01.993Z,1.75
2023-03-07T01:24:48.436Z,1.70
2023-03-07T01:25:37.900Z,1.63
2023-03-07T01:26:17.788Z,1.50
2023-03-07T01:27:00.113Z,1.50
2023-03-07T01:28:13.699Z,1.40
2023-03-07T01:29:00.497Z,1.60
2023-03-07T01:29:37.996Z,1.40
2023-03-07T01:30:20.732Z,1.77
2023-03-07T01:31:09.392Z,1.80
2023-03-07T01:31:50.679Z,1.50
2023-03-07T01:32:25.665Z,1.85
2023-03-07T01:33:00.978Z,1.70
2023-03-07T01:33:46.949Z,1.63
2023-03-07T01:34:20.803Z,1.40
2023-03-07T01:35:12.024Z,1.40
2023-03-07T01:35:56.997Z,1.30
2023-03-07T01:36:33.370Z,1.90
2023-03-07T01:37:24.900Z,1.88
2023-03-07T01:38:02.967Z,1.50
2023-03-07T01:38:47.776Z,1.17
2023-03-07T01:39:24.768Z,1.52
2023-03-07T01:40:07.099Z,1.70
2023-03-07T01:40:46.638Z,1.63
2023-03-07T01:41:29.927Z,1.27
2023-03-07T01:42:04.034Z,1.65
2023-03-07T01:42:41.680Z,1.85
2023-03-07T01:43:36.262Z,1.90
2023-03-07T01:44:28.002Z,1.58
2023-03-07T01:45:09.363Z,1.60
2023-03-07T01:46:19.685Z,1.40
2023-03-07T01:47:00.902Z,1.20
2023-03-07T01:47:47.747Z,1.85
2023-03-07T01:48:24.914Z,1.58
2023-03-07T01:49:00.978Z,1.70
2023-03-07T01:49:43.266Z,1.52
2023-03-07T01:50:17.644Z,1.50
2023-03-07T01:50:56.120Z,1.65
2023-03-07T01:51:31.289Z,3.50
2023-03-07T01:52:08.955Z,2.05
2023-03-07T01:52:47.991Z,1.63
2023-03-07T01:53:31.539Z,1.33
2023-03-07T01:54:09.593Z,1.63
2023-03-07T01:54:49.179Z,1.50
2023-03-07T01:55:31.252Z,1.73
2023-03-07T01:56:12.008Z,1.30
2023-03-07T01:56:55.385Z,1.48
2023-03-07T01:57:36.157Z,1.52
2023-03-07T01:58:13.225Z,1.52
2023-03-07T01:58:55.673Z,1.65
2023-03-07T01:59:31.434Z,1.50
2023-03-07T02:00:09.998Z,1.40
2023-03-07T02:01:11.648Z,1.80
2023-03-07T02:01:49.729Z,1.38
2023-03-07T02:02:46.860Z,1.73
2023-03-07T02:03:46.816Z,1.40
2023-03-07T02:04:33.368Z,1.60
2023-03-07T02:05:10.916Z,1.60
2023-03-07T02:05:50.290Z,1.77
2023-03-07T02:06:35.537Z,1.95
2023-03-07T02:07:17.246Z,2.00
2023-03-07T02:07:55.517Z,1.58
2023-03-07T02:08:36.544Z,1.50
2023-03-07T02:09:36.219Z,1.70
2023-03-07T02:10:29.833Z,1.60
2023-03-07T02:11:09.438Z,2.17
2023-03-07T02:12:03.641Z,1.50
2023-03-07T02:12:59.334Z,1.30
2023-03-07T02:13:43.515Z,1.85
2023-03-07T02:14:20.412Z,1.50
2023-03-07T02:15:05.354Z,1.85
2023-03-07T02:15:43.445Z,1.40
2023-03-07T02:16:27.940Z,1.90
2023-03-07T02:17:13.372Z,1.65
2023-03-07T02:17:50.856Z,1.50
2023-03-07T02:18:26.660Z,1.60
2023-03-07T02:19:16.729Z,1.60
2023-03-07T02:19:58.357Z,1.52
2023-03-07T02:20:36.915Z,1.55
2023-03-07T02:21:14.213Z,1.65
2023-03-07T02:21:51.606Z,1.70
2023-03-07T02:22:36.510Z,1.40
2023-03-07T02:23:14.644Z,1.92
2023-03-07T02:23:53.323Z,1.50
2023-03-07T02:24:33.598Z,1.15
2023-03-07T02:25:24.224Z,1.60
2023-03-07T02:26:04.536Z,1.33
2023-03-07T02:26:46.471Z,1.70
2023-03-07T02:27:19.598Z,1.48
2023-03-07T02:28:00.779Z,1.40
2023-03-07T02:28:37.658Z,1.40
2023-03-07T02:29:17.046Z,1.60
2023-03-07T02:29:55.396Z,1.90
2023-03-07T02:30:31.501Z,1.45
2023-03-07T02:31:08.421Z,1.88
2023-03-07T02:31:48.259Z,1.77
2023-03-07T02:32:32.455Z,1.40
2023-03-07T02:33:34.340Z,1.40
2023-03-07T02:34:37.982Z,1.45
2023-03-07T02:36:49.678Z,1.15
2023-03-07T02:37:36.010Z,1.48
2023-03-07T02:38:12.844Z,1.42
2023-03-07T02:38:54.870Z,1.55
2023-03-07T02:39:47.609Z,1.73
2023-03-07T02:40:33.870Z,1.30
2023-03-07T02:41:32.608Z,1.52
2023-03-07T02:42:23.295Z,1.60
2023-03-07T02:43:09.756Z,1.70
2023-03-07T02:43:45.212Z,1.58
2023-03-07T02:44:23.806Z,1.40
2023-03-07T02:45:20.318Z,1.73
2023-03-07T02:47:11.893Z,2.10
2023-03-07T02:47:58.596Z,1.70
2023-03-07T02:48:44.236Z,1.85
2023-03-07T02:49:31.734Z,1.80
2023-03-07T02:50:14.189Z,1.50
2023-03-07T02:51:13.875Z,1.08
2023-03-07T02:52:02.006Z,1.63
2023-03-07T02:52:42.504Z,2.00
2023-03-07T02:53:21.319Z,1.38
2023-03-07T02:53:56.234Z,1.48
2023-03-07T02:54:31.938Z,1.83
2023-03-07T02:55:05.500Z,2.13
2023-03-07T02:55:41.480Z,1.38
2023-03-07T02:56:17.800Z,1.65
2023-03-07T02:56:53.477Z,1.70
2023-03-07T02:57:32.684Z,2.10
2023-03-07T02:58:10.820Z,1.98
2023-03-07T02:58:47.962Z,1.80
2023-03-07T02:59:34.893Z,1.98
2023-03-07T03:00:17.946Z,1.90
2023-03-07T03:00:56.278Z,1.90
2023-03-07T03:01:37.693Z,1.80
2023-03-07T03:02:29.938Z,1.60
2023-03-07T03:03:05.091Z,2.00
2023-03-07T03:04:02.746Z,1.60
2023-03-07T03:04:41.927Z,1.77
2023-03-07T03:05:36.369Z,1.80
2023-03-07T03:06:15.095Z,1.63
2023-03-07T03:06:54.750Z,1.88
2023-03-07T03:07:41.848Z,1.65
2023-03-07T03:08:28.722Z,1.95
2023-03-07T03:09:14.184Z,1.63
2023-03-07T03:09:56.360Z,1.75
2023-03-07T03:11:30.924Z,1.58
2023-03-07T03:13:09.345Z,1.45
2023-03-07T03:13:49.646Z,1.67
2023-03-07T03:14:39.962Z,1.85
2023-03-07T03:15:17.646Z,1.73
2023-03-07T03:16:00.004Z,2.13
2023-03-07T03:16:54.727Z,1.80
2023-03-07T03:17:41.622Z,1.63
2023-03-07T03:18:38.814Z,1.60
2023-03-07T03:19:19.463Z,1.50
2023-03-07T03:20:21.630Z,1.60
2023-03-07T03:21:05.741Z,2.28
2023-03-07T03:22:08.369Z,1.95
2023-03-07T03:23:07.116Z,1.95
2023-03-07T03:24:02.254Z,1.33
2023-03-07T03:25:07.205Z,1.60
2023-03-07T03:26:16.901Z,8.75
2023-03-07T03:27:10.744Z,52.90
2023-03-07T03:28:17.352Z,6.00
2023-03-07T03:29:45.034Z,2.45
2023-03-07T03:30:57.654Z,1.73
2023-03-07T03:32:10.110Z,1.50
2023-03-07T03:33:17.394Z,2.20
2023-03-07T03:35:45.409Z,1.35
2023-03-07T03:36:38.012Z,1.75
2023-03-07T03:37:19.079Z,1.85
2023-03-07T03:38:02.579Z,2.30
2023-03-07T03:39:07.060Z,1.70
2023-03-07T03:39:51.716Z,2.03
2023-03-07T03:40:26.067Z,1.75
2023-03-07T03:41:00.216Z,2.10
2023-03-07T03:41:38.640Z,1.83
2023-03-07T03:42:12.825Z,1.52
2023-03-07T03:42:47.409Z,1.70
2023-03-07T03:43:26.039Z,1.52
2023-03-07T03:44:00.032Z,1.65
2023-03-07T03:45:37.803Z,1.80
2023-03-07T03:46:16.358Z,1.88
2023-03-07T03:46:49.467Z,2.85
2023-03-07T03:47:36.324Z,3.08
2023-03-07T03:48:12.738Z,2.22
2023-03-07T03:49:01.406Z,2.10
2023-03-07T03:49:46.048Z,1.95
2023-03-07T03:50:19.256Z,2.22
2023-03-07T03:50:54.007Z,1.85
2023-03-07T03:51:30.000Z,2.63
2023-03-07T03:52:03.083Z,1.67
2023-03-07T03:52:42.949Z,1.92
2023-03-07T03:53:40.572Z,2.13
2023-03-07T03:54:46.860Z,2.10
2023-03-07T03:55:49.161Z,1.77
2023-03-07T03:57:24.960Z,2.20
2023-03-07T03:58:48.508Z,1.65
2023-03-07T04:00:10.342Z,1.65
2023-03-07T04:00:59.014Z,1.90
2023-03-07T04:01:39.048Z,1.83
2023-03-07T04:02:32.661Z,6.78
2023-03-07T04:03:19.787Z,6.07
2023-03-07T04:04:07.862Z,3.05
2023-03-07T04:04:55.998Z,2.85
2023-03-07T04:08:32.147Z,1.90
2023-03-07T04:09:30.147Z,1.90
2023-03-07T04:12:02.181Z,1.48
2023-03-07T04:17:02.356Z,1.67
2023-03-07T04:18:27.241Z,1.50
2023-03-07T04:22:01.036Z,2.28
2023-03-07T04:23:41.752Z,2.15
2023-03-07T04:24:27.666Z,1.77
2023-03-07T04:25:36.560Z,2.00
2023-03-07T04:26:27.294Z,2.15
2023-03-07T04:27:14.314Z,1.98
2023-03-07T04:27:59.228Z,2.13
2023-03-07T04:28:58.283Z,2.25
2023-03-07T04:29:50.728Z,2.30
2023-03-07T04:30:38.187Z,2.10
2023-03-07T04:31:48.663Z,2.25
2023-03-07T04:32:43.013Z,1.98
2023-03-07T04:36:09.048Z,2.08
2023-03-07T04:37:57.403Z,1.90
2023-03-07T04:39:25.190Z,1.80
2023-03-07T04:46:13.318Z,1.60
2023-03-07T04:51:44.122Z,1.58
2023-03-07T04:52:51.116Z,1.63
2023-03-07T04:53:42.908Z,1.90
2023-03-07T04:54:31.204Z,1.80
2023-03-07T04:55:08.039Z,2.13
2023-03-07T04:55:48.952Z,2.45
2023-03-07T04:56:28.403Z,1.95
2023-03-07T04:57:10.081Z,2.35
2023-03-07T04:58:03.267Z,2.17
2023-03-07T04:58:38.882Z,2.15
2023-03-07T04:59:14.662Z,2.10
2023-03-07T04:59:50.166Z,2.20
2023-03-07T05:00:28.022Z,1.60
2023-03-07T05:01:08.903Z,2.03
2023-03-07T05:01:48.143Z,1.50
2023-03-07T05:02:28.865Z,2.20
2023-03-07T05:03:08.367Z,1.77
2023-03-07T05:03:44.468Z,2.15
2023-03-07T05:04:38.468Z,2.03
2023-03-07T05:05:26.345Z,1.90
2023-03-07T05:06:17.018Z,1.90
2023-03-07T05:07:39.307Z,1.95
2023-03-07T05:08:30.434Z,1.80
2023-03-07T05:09:06.676Z,2.30
2023-03-07T05:10:26.774Z,1.95
2023-03-07T05:11:28.304Z,2.30
2023-03-07T05:12:16.546Z,1.90
2023-03-07T05:14:28.117Z,1.90
2023-03-07T05:15:26.590Z,1.85
2023-03-07T05:16:24.446Z,2.50
2023-03-07T05:17:08.140Z,2.20
2023-03-07T05:17:43.913Z,2.85
2023-03-07T05:18:20.717Z,2.15
2023-03-07T05:19:06.407Z,2.22
2023-03-07T05:19:58.167Z,1.85
2023-03-07T05:20:51.280Z,2.97
2023-03-07T05:23:12.741Z,2.05
2023-03-07T05:23:54.876Z,2.35
2023-03-07T05:24:36.819Z,2.15
2023-03-07T05:25:30.365Z,2.15
2023-03-07T05:26:16.281Z,1.95
2023-03-07T05:27:11.208Z,1.95
2023-03-07T05:27:50.240Z,2.50
2023-03-07T05:28:25.980Z,1.98
2023-03-07T05:29:02.851Z,2.22
2023-03-07T05:29:36.877Z,2.33
2023-03-07T05:30:10.398Z,2.55
2023-03-07T05:30:44.291Z,2.47
2023-03-07T05:31:18.569Z,2.20
2023-03-07T05:31:52.896Z,2.28
2023-03-07T05:32:26.976Z,2.40
2023-03-07T05:33:00.116Z,2.53
2023-03-07T05:33:40.951Z,1.98
2023-03-07T05:34:20.450Z,2.10
2023-03-07T05:34:59.896Z,2.60
2023-03-07T05:35:48.087Z,2.28
2023-03-07T05:36:52.179Z,2.05
2023-03-07T05:37:35.778Z,2.45
2023-03-07T05:38:11.314Z,1.92
2023-03-07T05:39:09.343Z,2.05
2023-03-07T05:39:47.311Z,1.90
2023-03-07T05:40:33.442Z,2.28
2023-03-07T05:42:20.517Z,2.50
2023-03-07T05:43:06.199Z,1.95
2023-03-07T05:43:42.556Z,3.05
2023-03-07T05:44:22.876Z,2.63
2023-03-07T05:45:14.962Z,2.25
2023-03-07T05:45:54.791Z,2.60
2023-03-07T05:46:27.848Z,2.92
2023-03-07T05:47:29.685Z,2.33
2023-03-07T05:48:15.512Z,2.63
2023-03-07T05:49:12.282Z,2.83
2023-03-07T05:49:51.266Z,2.70
2023-03-07T05:50:25.756Z,4.32
2023-03-07T05:51:01.565Z,3.30
2023-03-07T05:51:35.197Z,2.40
2023-03-07T05:52:14.268Z,2.83
2023-03-07T05:52:55.055Z,2.67
2023-03-07T05:53:49.008Z,2.78
2023-03-07T05:55:02.134Z,2.47
2023-03-07T05:55:46.983Z,2.58
2023-03-07T05:56:28.234Z,2.70
2023-03-07T05:57:04.648Z,2.70
2023-03-07T05:57:52.866Z,2.50
2023-03-07T05:58:28.239Z,2.35
2023-03-07T05:59:13.285Z,2.65
2023-03-07T05:59:47.713Z,2.58
2023-03-07T06:00:21.300Z,2.70
2023-03-07T06:01:13.812Z,2.40
2023-03-07T06:02:04.786Z,2.45
2023-03-07T06:02:41.842Z,3.00
2023-03-07T06:03:21.595Z,2.65
2023-03-07T06:03:56.287Z,2.75
2023-03-07T06:04:34.570Z,3.45
2023-03-07T06:05:08.769Z,2.60
2023-03-07T06:05:41.703Z,3.30
2023-03-07T06:06:17.947Z,2.55
2023-03-07T06:06:52.193Z,2.75
2023-03-07T06:07:26.946Z,3.00
2023-03-07T06:08:00.039Z,2.30
2023-03-07T06:08:41.702Z,2.40
2023-03-07T06:09:21.214Z,2.95
2023-03-07T06:09:54.771Z,2.85
2023-03-07T06:10:29.213Z,2.55
2023-03-07T06:11:04.693Z,2.42
2023-03-07T06:11:40.450Z,2.90
2023-03-07T06:12:15.792Z,3.08
2023-03-07T06:12:51.110Z,3.03
2023-03-07T06:13:28.654Z,7.15
2023-03-07T06:14:02.523Z,10.52
2023-03-07T06:14:35.386Z,4.97
2023-03-07T06:15:14.963Z,3.70
2023-03-07T06:15:50.969Z,3.08
2023-03-07T06:16:24.788Z,3.80
2023-03-07T06:16:58.684Z,2.85
2023-03-07T06:17:32.041Z,2.92
2023-03-07T06:18:07.478Z,3.03
2023-03-07T06:18:41.598Z,3.10
2023-03-07T06:19:14.585Z,3.00
2023-03-07T06:19:52.209Z,3.25
2023-03-07T06:20:28.405Z,3.90
2023-03-07T06:21:07.836Z,3.50
2023-03-07T06:21:47.033Z,2.88
2023-03-07T06:22:19.881Z,2.72
2023-03-07T06:22:55.189Z,2.67
2023-03-07T06:23:34.279Z,2.83
2023-03-07T06:24:10.550Z,3.05
2023-03-07T06:24:44.688Z,3.00
2023-03-07T06:25:21.757Z,3.50
2023-03-07T06:26:32.619Z,2.92
2023-03-07T06:27:35.931Z,2.70
2023-03-07T06:28:13.393Z,3.65
2023-03-07T06:28:54.004Z,3.20
2023-03-07T06:29:31.825Z,3.03
2023-03-07T06:30:07.318Z,3.10
2023-03-07T06:30:41.878Z,2.88
2023-03-07T06:31:19.218Z,2.92
2023-03-07T06:31:55.448Z,3.03
2023-03-07T06:32:28.787Z,2.92
2023-03-07T06:33:02.817Z,3.70
2023-03-07T06:33:37.110Z,3.15
2023-03-07T06:34:14.784Z,2.92
2023-03-07T06:34:49.778Z,3.25
2023-03-07T06:35:24.838Z,3.35
2023-03-07T06:36:06.113Z,3.28
2023-03-07T06:36:41.231Z,3.00
2023-03-07T06:37:18.160Z,3.35
2023-03-07T06:38:11.523Z,3.13
2023-03-07T06:38:49.204Z,3.10
2023-03-07T06:39:31.694Z,3.47
2023-03-07T06:40:12.378Z,2.83
2023-03-07T06:40:49.908Z,3.20
2023-03-07T06:41:23.157Z,2.83
2023-03-07T06:42:12.187Z,3.20
2023-03-07T06:42:46.538Z,3.50
2023-03-07T06:43:23.411Z,3.47
2023-03-07T06:44:21.643Z,3.30
2023-03-07T06:44:54.313Z,3.20
2023-03-07T06:45:47.300Z,3.33
2023-03-07T06:46:35.577Z,3.13
2023-03-07T06:47:16.304Z,3.67
2023-03-07T06:47:53.004Z,3.28
2023-03-07T06:48:48.426Z,3.67
2023-03-07T06:49:29.658Z,3.83
2023-03-07T06:50:08.853Z,3.47
2023-03-07T06:50:45.172Z,3.25
2023-03-07T06:51:38.082Z,3.67
2023-03-07T06:52:30.168Z,3.53
2023-03-07T06:54:11.114Z,3.40
2023-03-07T06:57:10.527Z,3.22
2023-03-07T06:57:52.592Z,3.00
2023-03-07T06:58:32.979Z,3.55
2023-03-07T06:59:06.145Z,3.25
2023-03-07T06:59:44.268Z,4.10
2023-03-07T07:00:26.870Z,3.38
2023-03-07T07:00:59.990Z,4.20
2023-03-07T07:02:01.092Z,4.10
2023-03-07T07:02:53.062Z,3.10
2023-03-07T07:03:43.255Z,3.55
2023-03-07T07:04:28.041Z,3.40
2023-03-07T07:06:23.880Z,3.28
2023-03-07T07:06:57.958Z,3.15
2023-03-07T07:07:32.307Z,5.60
2023-03-07T07:08:08.367Z,20.30
2023-03-07T07:08:41.982Z,4.50
2023-03-07T07:09:15.804Z,3.95
2023-03-07T07:09:48.470Z,3.28
2023-03-07T07:10:22.159Z,178.23
2023-03-07T07:10:59.599Z,15.10
2023-03-07T07:11:35.874Z,8.40
2023-03-07T07:12:19.641Z,5.32
2023-03-07T07:12:57.266Z,3.60
2023-03-07T07:13:38.525Z,3.95
2023-03-07T07:14:13.709Z,3.55
2023-03-07T07:14:51.276Z,3.60
2023-03-07T07:15:28.925Z,3.58
2023-03-07T07:16:08.138Z,3.47
2023-03-07T07:16:43.471Z,3.28
2023-03-07T07:17:17.856Z,3.88
2023-03-07T07:17:53.290Z,3.88
2023-03-07T07:18:29.596Z,3.72
2023-03-07T07:19:04.918Z,3.53
2023-03-07T07:19:39.660Z,3.40
2023-03-07T07:20:15.594Z,3.15
2023-03-07T07:20:55.535Z,3.17
2023-03-07T07:21:29.441Z,3.38
2023-03-07T07:22:03.568Z,3.50
2023-03-07T07:22:36.418Z,3.83
2023-03-07T07:23:13.136Z,3.28
2023-03-07T07:23:47.885Z,3.60
2023-03-07T07:24:22.259Z,5.03
2023-03-07T07:24:55.273Z,3.90
2023-03-07T07:25:28.251Z,3.35
2023-03-07T07:26:03.649Z,3.80
2023-03-07T07:26:37.079Z,3.03
2023-03-07T07:27:12.505Z,2.95
2023-03-07T07:27:49.595Z,3.40
2023-03-07T07:28:24.078Z,3.05
2023-03-07T07:28:58.701Z,3.25
2023-03-07T07:29:34.824Z,3.35
2023-03-07T07:30:20.612Z,3.13
2023-03-07T07:30:56.214Z,3.13
2023-03-07T07:31:31.141Z,3.50
2023-03-07T07:32:04.394Z,3.40
2023-03-07T07:32:37.765Z,3.20
2023-03-07T07:33:13.813Z,3.78
2023-03-07T07:33:47.929Z,3.63
2023-03-07T07:34:23.188Z,3.75
2023-03-07T07:34:55.997Z,3.65
2023-03-07T07:35:31.228Z,3.60
2023-03-07T07:36:07.112Z,3.78
2023-03-07T07:36:43.266Z,3.40
2023-03-07T07:37:17.559Z,3.40
2023-03-07T07:37:52.134Z,3.63
2023-03-07T07:38:26.399Z,3.90
2023-03-07T07:38:59.540Z,3.40
2023-03-07T07:39:34.456Z,3.67
2023-03-07T07:40:10.285Z,3.20
2023-03-07T07:40:45.262Z,3.28
2023-03-07T07:41:19.072Z,3.60
2023-03-07T07:41:53.817Z,4.18
2023-03-07T07:42:32.419Z,37.65
2023-03-07T07:43:28.070Z,5.25
2023-03-07T07:44:10.615Z,3.47
2023-03-07T07:45:00.618Z,3.83
2023-03-07T07:45:34.778Z,3.67
2023-03-07T07:46:07.774Z,3.90
2023-03-07T07:46:47.241Z,3.72
2023-03-07T07:47:21.267Z,3.80
2023-03-07T07:47:54.404Z,3.40
2023-03-07T07:48:30.110Z,3.70
2023-03-07T07:49:05.799Z,3.60
2023-03-07T07:49:39.680Z,4.05
2023-03-07T07:50:14.366Z,4.22
2023-03-07T07:50:50.967Z,3.78
2023-03-07T07:51:24.199Z,3.78
2023-03-07T07:51:58.469Z,3.92
2023-03-07T07:52:32.008Z,4.13
2023-03-07T07:53:06.079Z,4.97
2023-03-07T07:53:39.285Z,4.35
2023-03-07T07:54:14.817Z,3.90
2023-03-07T07:54:49.604Z,3.95
2023-03-07T07:55:30.599Z,3.13
2023-03-07T07:56:09.743Z,3.78
2023-03-07T07:56:42.921Z,3.42
2023-03-07T07:57:21.594Z,4.13
2023-03-07T07:57:55.808Z,3.50
2023-03-07T07:58:31.304Z,3.55
2023-03-07T07:59:06.426Z,3.50
2023-03-07T07:59:39.560Z,135.95
2023-03-07T08:00:19.565Z,7.22
2023-03-07T08:00:52.524Z,6.32
2023-03-07T08:01:27.300Z,4.50
2023-03-07T08:02:00.339Z,8.63
2023-03-07T08:02:35.332Z,21.60
2023-03-07T08:03:09.578Z,6.20
2023-03-07T08:03:43.000Z,4.20
2023-03-07T08:04:19.565Z,3.88
2023-03-07T08:04:52.661Z,3.58
2023-03-07T08:05:26.715Z,4.28
2023-03-07T08:06:04.388Z,3.60
2023-03-07T08:06:38.605Z,3.30
2023-03-07T08:07:14.755Z,3.67
2023-03-07T08:07:48.785Z,3.75
2023-03-07T08:08:21.879Z,3.58
2023-03-07T08:09:00.305Z,3.30
2023-03-07T08:09:33.298Z,3.95
2023-03-07T08:10:07.830Z,3.53
2023-03-07T08:10:43.282Z,4.07
2023-03-07T08:11:17.645Z,3.60
2023-03-07T08:11:52.230Z,3.80
2023-03-07T08:12:27.020Z,3.53
2023-03-07T08:13:03.593Z,4.00
2023-03-07T08:13:38.335Z,3.83
2023-03-07T08:14:13.462Z,4.30
2023-03-07T08:14:46.448Z,4.07
2023-03-07T08:15:21.754Z,4.07
2023-03-07T08:15:56.738Z,4.40
2023-03-07T08:16:33.786Z,3.35
2023-03-07T08:17:06.857Z,4.25
2023-03-07T08:17:40.802Z,3.42
2023-03-07T08:18:13.960Z,3.33
2023-03-07T08:18:50.621Z,4.75
2023-03-07T08:19:28.863Z,4.28
2023-03-07T08:20:08.285Z,3.83
2023-03-07T08:20:42.494Z,4.20
2023-03-07T08:21:17.330Z,4.63
2023-03-07T08:21:51.330Z,4.20
2023-03-07T08:22:24.556Z,4.20
2023-03-07T08:23:03.769Z,4.15
2023-03-07T08:23:37.336Z,26.98
2023-03-07T08:24:11.320Z,16.02
2023-03-07T08:24:44.203Z,5.07
2023-03-07T08:25:18.205Z,4.55
2023-03-07T08:25:52.178Z,4.90
2023-03-07T08:26:25.539Z,4.18
2023-03-07T08:26:58.614Z,4.65
2023-03-07T08:27:33.324Z,4.70
2023-03-07T08:28:06.402Z,4.30
2023-03-07T08:28:42.342Z,4.05
2023-03-07T08:29:15.242Z,3.85
2023-03-07T08:29:50.977Z,4.15
2023-03-07T08:30:28.624Z,4.28
2023-03-07T08:31:07.511Z,4.28
2023-03-07T08:31:41.798Z,4.38
2023-03-07T08:32:15.471Z,4.25
2023-03-07T08:32:52.823Z,3.92
2023-03-07T08:33:29.542Z,4.45
2023-03-07T08:34:07.868Z,4.38
2023-03-07T08:34:40.947Z,4.50
2023-03-07T08:35:15.133Z,4.30
2023-03-07T08:35:52.818Z,4.25
2023-03-07T08:36:36.142Z,4.45
2023-03-07T08:37:18.405Z,4.05
2023-03-07T08:37:54.894Z,4.50
2023-03-07T08:38:28.962Z,4.38
2023-03-07T08:39:01.828Z,4.07
2023-03-07T08:39:36.403Z,4.43
2023-03-07T08:40:12.428Z,4.88
2023-03-07T08:40:45.430Z,4.47
2023-03-07T08:41:19.454Z,4.30
2023-03-07T08:41:55.321Z,4.97
2023-03-07T08:42:31.422Z,4.50
2023-03-07T08:43:09.709Z,4.90
2023-03-07T08:43:44.252Z,4.25
2023-03-07T08:44:19.503Z,4.75
2023-03-07T08:44:52.565Z,4.38
2023-03-07T08:45:28.666Z,4.43
2023-03-07T08:46:01.629Z,4.20
2023-03-07T08:46:35.707Z,4.53
2023-03-07T08:47:08.947Z,4.40
2023-03-07T08:47:41.926Z,4.80
2023-03-07T08:48:15.999Z,4.88
2023-03-07T08:48:48.976Z,4.65
2023-03-07T08:49:23.090Z,4.60
2023-03-07T08:50:05.524Z,4.47
2023-03-07T08:51:01.672Z,5.05
2023-03-07T08:51:35.180Z,3.92
2023-03-07T08:52:09.066Z,4.75
2023-03-07T08:52:47.726Z,5.15
2023-03-07T08:53:21.973Z,5.35
2023-03-07T08:53:54.820Z,4.45
2023-03-07T08:54:31.503Z,5.38
2023-03-07T08:55:07.776Z,4.65
2023-03-07T08:55:41.716Z,4.70
2023-03-07T08:56:15.463Z,5.20
2023-03-07T08:56:50.111Z,115.05
2023-03-07T08:57:23.040Z,406.05
2023-03-07T08:57:56.065Z,332.63
2023-03-07T08:58:30.129Z,515.35
2023-03-07T08:59:06.340Z,33.35
2023-03-07T08:59:42.664Z,9.93
2023-03-07T09:00:16.102Z,6.45
2023-03-07T09:00:49.078Z,5.88
2023-03-07T09:01:23.190Z,6.05
2023-03-07T09:02:00.251Z,5.15
2023-03-07T09:02:35.176Z,5.00
2023-03-07T09:03:10.554Z,5.47
2023-03-07T09:03:47.738Z,4.80
2023-03-07T09:04:20.741Z,5.80
2023-03-07T09:04:55.540Z,5.68
2023-03-07T09:05:30.785Z,5.88
2023-03-07T09:06:15.419Z,5.60
2023-03-07T09:07:07.301Z,5.50
2023-03-07T09:07:41.247Z,5.07
2023-03-07T09:08:16.686Z,4.93
2023-03-07T09:08:53.438Z,5.78
2023-03-07T09:09:26.444Z,5.60
2023-03-07T09:10:00.611Z,5.60
2023-03-07T09:10:33.914Z,6.15
2023-03-07T09:11:13.531Z,5.90
2023-03-07T09:11:50.750Z,5.10
2023-03-07T09:12:25.078Z,4.95
2023-03-07T09:12:58.623Z,5.50
2023-03-07T09:13:40.408Z,6.07
2023-03-07T09:14:20.782Z,5.78
2023-03-07T09:14:57.669Z,5.68
2023-03-07T09:15:30.533Z,5.25
2023-03-07T09:16:17.663Z,5.30
2023-03-07T09:16:50.835Z,5.70
2023-03-07T09:17:28.155Z,5.22
2023-03-07T09:18:12.091Z,5.45
2023-03-07T09:18:57.686Z,5.07
2023-03-07T09:19:35.263Z,5.50
2023-03-07T09:20:17.685Z,5.18
2023-03-07T09:20:53.200Z,5.35
2023-03-07T09:21:30.150Z,5.07
2023-03-07T09:22:06.123Z,5.25
2023-03-07T09:22:39.295Z,5.63
2023-03-07T09:23:17.117Z,5.53
2023-03-07T09:23:50.311Z,5.20
2023-03-07T09:24:27.517Z,5.30
2023-03-07T09:25:22.313Z,5.38
2023-03-07T09:26:11.868Z,5.95
2023-03-07T09:26:54.265Z,4.93
2023-03-07T09:27:37.359Z,4.70
2023-03-07T09:28:12.498Z,5.30
2023-03-07T09:28:48.354Z,5.72
2023-03-07T09:29:22.705Z,5.50
2023-03-07T09:29:56.591Z,5.40
2023-03-07T09:30:29.453Z,5.22
2023-03-07T09:31:08.851Z,5.60
2023-03-07T09:31:44.446Z,5.45
2023-03-07T09:32:17.648Z,5.45
2023-03-07T09:32:51.968Z,5.50
2023-03-07T09:33:27.558Z,5.28
2023-03-07T09:34:01.691Z,5.80
2023-03-07T09:34:40.657Z,6.88
2023-03-07T09:35:14.656Z,5.65
2023-03-07T09:35:50.155Z,5.57
2023-03-07T09:36:24.035Z,5.70
2023-03-07T09:37:04.620Z,5.85
2023-03-07T09:37:37.541Z,5.45
2023-03-07T09:38:13.605Z,4.95
2023-03-07T09:38:47.426Z,5.22
2023-03-07T09:39:21.082Z,5.60
2023-03-07T09:39:54.993Z,5.30
2023-03-07T09:40:33.590Z,5.03
2023-03-07T09:41:15.140Z,5.60
2023-03-07T09:42:00.609Z,4.88
2023-03-07T09:42:41.073Z,5.32
2023-03-07T09:43:21.205Z,5.28
2023-03-07T09:44:33.348Z,5.20
2023-03-07T09:45:39.585Z,5.03
2023-03-07T09:46:29.962Z,5.30
2023-03-07T09:47:20.000Z,5.32
2023-03-07T09:48:22.608Z,4.78
2023-03-07T09:49:24.303Z,5.47
2023-03-07T09:50:03.280Z,4.38
2023-03-07T09:50:44.582Z,5.72
2023-03-07T09:51:23.061Z,5.22